Mateus Martins

Recruteur en chef - Internacional
20 Mai 2027
Jeudi
Processus

Personnalité

Adaptabilité (13) Ambition (18) Controverse (1) Loyauté (12) Pression (12) Professionnalisme (9) Sportivité (12) Tempérament (1)

Profil

Style d'entraînement Démocratique
Diplôme Continental Pro
Détermination 7
Gestion des joueurs 10
Motivation 12
Discipline 12
Satisfaction professionnelle
50%
Fatigue
0%
Rôle Recruteur en chef
Salaire 83.4K p/s
Contrat 14.03.2029

Performance

Comportement Normal
Efficacité de l'entraînement
26%
Développement des joueurs
35%
Prévention des blessures
60%
Mise en place tactique
40%

Événements récents

A évalué un joueur maintenant
A participé à une réunion de recrutement maintenant
A recommandé une cible de transfert maintenant
A évalué un joueur 7j
A évalué un joueur 7j
A évalué un joueur 7j
A évalué un joueur 7j
A évalué un joueur 7j

Suivi en cours

249
Joueur Club Statut Capacité Confiance Observé Dernière observation Dernier vote
Marcus Edwards Burnley Actif 131 / 145 40% 3 19.05.2027 -
Hidemasa Morita Hull City Actif 131 / 137 40% 1 19.05.2027 -
Assane Diao Lazio Actif 144 / 151 40% 1 19.05.2027 -
Ander Barrenetxea Real Sociedad Actif 147 / 151 40% 5 18.05.2027 -
Sergio Arribas Almería Actif 148 / 134 40% 3 18.05.2027 -
Luís Henrique Inter Actif 141 / 137 40% 1 18.05.2027 -
Callum Hudson-Odoi Nottingham Forest Actif 142 / 143 40% 2 17.05.2027 -
Carlos Vicente Birmingham Actif 134 / 140 40% 8 17.05.2027 -
Georginio Rutter Brighton Actif 140 / 150 40% 4 17.05.2027 -
Tom Fellows Southampton Actif 141 / 133 40% 6 16.05.2027 -
Mats Wieffer Brighton Actif 156 / 142 40% 2 15.05.2027 -
Nicolas Jackson Aston Villa Actif 140 / 143 40% 4 15.05.2027 -
Kevin Fulham Actif 149 / 155 40% 1 15.05.2027 -
Welington Southampton Actif 134 / 124 40% 6 14.05.2027 -
Francisco Conceição Juventus Actif 156 / 166 40% 2 14.05.2027 -
Harry Wilson Leeds United Actif 152 / 150 40% 2 14.05.2027 -
Amadou Onana Aston Villa Actif 149 / 153 40% 1 14.05.2027 -
Bosun Lawal Stoke City Actif 134 / 127 40% 1 14.05.2027 -
Conor Gallagher Tottenham Actif 159 / 152 40% 1 14.05.2027 -
Julio Enciso Ipswich Town Actif 152 / 143 40% 4 12.05.2027 -
James Maddison Tottenham Actif 155 / 152 40% 1 12.05.2027 -
Carlos Alcaraz Everton Actif 144 / 152 40% 1 12.05.2027 -
Dango Ouattara Brentford Actif 157 / 151 40% 3 11.05.2027 -
David Zapata Sheffield Wednesday Actif 158 / 138 40% 18 10.05.2027 -
Charles De Ketelaere Atalanta Actif 162 / 150 40% 2 10.05.2027 -
John McGinn Aston Villa Actif 155 / 148 40% 1 10.05.2027 -
Giacomo Raspadori Atalanta Actif 153 / 143 40% 2 09.05.2027 -
Igor Jesus Nottingham Forest Actif 139 / 143 40% 3 08.05.2027 -
Mateo Pellegrino Fiorentina Actif 150 / 134 40% 2 08.05.2027 -
Nico González Newcastle United Actif 162 / 168 40% 1 08.05.2027 -
Dwight McNeil Crystal Palace Actif 148 / 138 40% 1 08.05.2027 -
Dávid Strelec Middlesbrough Actif 139 / 139 40% 2 07.05.2027 -
Jarrod Bowen West Ham United Actif 157 / 157 40% 1 07.05.2027 -
Christian Pulisic AC Milan Actif 164 / 156 40% 1 07.05.2027 -
Donyell Malen AS Roma Actif 150 / 152 40% 4 06.05.2027 -
Kenan Yıldız Juventus Actif 161 / 160 40% 2 06.05.2027 -
Marco Asensio Fenerbahce Actif 156 / 150 40% 6 05.05.2027 -
Abel Bretones Osasuna Actif 132 / 142 40% 3 05.05.2027 -
Matt O'Riley Brighton Actif 146 / 149 40% 1 05.05.2027 -
Borja Sainz Fiorentina Actif 153 / 144 40% 1 04.05.2027 -
Matías Soulé AS Roma Actif 157 / 149 40% 1 04.05.2027 -
Amine Adli Bournemouth Actif 152 / 140 40% 1 04.05.2027 -
Emile Smith Rowe Fulham Actif 161 / 142 40% 2 02.05.2027 -
Finn Azaz Southampton Actif 126 / 128 40% 1 02.05.2027 -
Morgan Whittaker Middlesbrough Actif 136 / 136 40% 1 01.05.2027 -
Loum Tchaouna Coventry City Actif 144 / 136 40% 10 30.04.2027 -
Dominic Calvert-Lewin Leeds United Actif 152 / 135 40% 6 29.04.2027 -
Hwang Hee-Chan Wolverhampton Actif 125 / 131 40% 1 29.04.2027 -
Jacob Ramsey Newcastle United Actif 150 / 142 40% 2 27.04.2027 -
José Paradela Cruz Azul Actif 146 / 130 40% 2 27.04.2027 -
Xavi Simons Tottenham Actif 167 / 162 40% 1 27.04.2027 -
Mohammed Kudus Tottenham Actif 150 / 148 40% 1 27.04.2027 -
Mateo Retegui Tottenham Actif 170 / 154 40% 1 27.04.2027 -
Barış Alper Yılmaz Galatasaray Actif 163 / 150 40% 3 26.04.2027 -
Brian Brobbey Sunderland Actif 150 / 146 40% 3 26.04.2027 -
Ricardo Horta Braga Actif 150 / 155 40% 11 24.04.2027 -
Víctor Gómez Braga Actif 133 / 141 40% 7 24.04.2027 -
Francisco Moura Lusitânia Lourosa Actif 133 / 137 40% 7 24.04.2027 -
Pepê Porto Actif 148 / 152 40% 10 23.04.2027 -
Roberto Fernández Braga Actif 141 / 134 40% 5 23.04.2027 -
Riley McGree Middlesbrough Actif 124 / 127 40% 2 22.04.2027 -
Romelu Castagne KV Oostende Actif 138 / 127 40% 3 21.04.2027 -
Alberto Costa Porto Actif 135 / 149 40% 5 21.04.2027 -
Gonçalo Ramos AC Milan Actif 159 / 152 40% 1 21.04.2027 -
Lautaro Martínez Inter Actif 168 / 172 40% 1 20.04.2027 -
Diego Lainez Tigres Actif 143 / 137 40% 7 19.04.2027 -
Dani Ceballos AS Roma Actif 141 / 145 40% 4 17.04.2027 -
Santi García Gil Vicente Actif 140 / 140 40% 8 16.04.2027 -
Geny Sporting CP Actif 143 / 136 40% 2 16.04.2027 -
Iván Fresneda Sporting CP Actif 140 / 140 40% 7 15.04.2027 -
Chiquinho Alverca Actif 122 / 121 40% 8 15.04.2027 -
Nuno Santos Sporting CP Actif 131 / 146 40% 3 14.04.2027 -
Sorba Thomas Stoke City Actif 128 / 125 40% 2 14.04.2027 -
Andrea Carboni Monza Actif 138 / 133 40% 1 12.04.2027 -
Soungoutou Magassa West Ham United Actif 127 / 130 40% 1 12.04.2027 -
Agustín Palavecino Cruz Azul Actif 150 / 135 40% 6 10.04.2027 -
João Carvalho Estoril Praia Actif 123 / 129 40% 2 10.04.2027 -
Nicolás Fernández Mercau Shakhtar Actif 127 / 125 40% 3 09.04.2027 -
Max Bird Birmingham Actif 127 / 134 40% 2 09.04.2027 -
Luís Esteves Atlas Actif 121 / 136 40% 2 09.04.2027 -
Callum Doyle Wrexham Actif 126 / 135 40% 1 09.04.2027 -
Razvan Balasa Crvena Zvezda Actif 161 / 152 40% 4 07.04.2027 -
Pau Víctor AVS Actif 142 / 129 40% 10 07.04.2027 -
Luka Jović AEK Actif 147 / 128 40% 5 07.04.2027 -
Eduardo Quaresma Sporting CP Actif 148 / 142 40% 2 06.04.2027 -
Yoan Bonny Inter Actif 139 / 153 40% 3 06.04.2027 -
Toni Fruk KV Mechelen Actif 136 / 142 40% 1 06.04.2027 -
Aidan Morris Middlesbrough Actif 133 / 125 40% 1 06.04.2027 -
Shea Charles Southampton Actif 134 / 136 40% 1 05.04.2027 -
Jacques Ekomié Wrexham Actif 136 / 122 40% 1 05.04.2027 -
Dodi Lukébakio Benfica Actif 154 / 152 40% 5 01.04.2027 -
Paulinho Palmeiras Actif 144 / 147 40% 16 01.04.2027 -
Musa Barrow Al-Khaleej Actif 131 / 139 40% 2 01.04.2027 -
Erick Sánchez OGC Nice Actif 138 / 136 40% 2 01.04.2027 -
Amine Gouiri Olympique de Marseille Actif 136 / 152 40% 2 30.03.2027 -
Jesús Ricardo Angulo Toluca Actif 132 / 122 40% 8 29.03.2027 -
Harry Clarke Preston Actif 118 / 121 40% 1 29.03.2027 -
Renato Sanches AVS Actif 143 / 123 40% 1 25.03.2027 -
Heorhii Sudakov Benfica Actif 151 / 144 40% 7 24.03.2027 -
Mario Dorgeles Braga Actif 122 / 136 40% 8 23.03.2027 -
Ozziel Herrera Tigres Actif 141 / 134 40% 1 22.03.2027 -
Félix Lemaréchal Club Brugge Actif 145 / 136 40% 4 21.03.2027 -
Rafik Guitane Estoril Praia Actif 127 / 130 40% 4 21.03.2027 -
Gianluca Prestianni Benfica Actif 143 / 141 40% 5 20.03.2027 -
Juan Brunetta Tigres Actif 132 / 140 40% 4 18.03.2027 -
Jørgen Strand Larsen Crystal Palace Actif 148 / 150 40% 3 16.03.2027 -
Jens Odgaard Bologna Actif 135 / 141 40% 1 16.03.2027 -
William Gomes Porto Actif 139 / 145 40% 7 14.03.2027 -
Anel Ahmedhodžić Burnley Actif 137 / 130 40% 1 14.03.2027 -
Antonino Gallo Lecce Actif 135 / 131 40% 1 14.03.2027 -
Tim Iroegbunam Hull City Actif 141 / 140 40% 1 14.03.2027 -
Hwang In-Beom Porto Actif 132 / 150 40% 3 11.03.2027 -
Jesús Angulo Tigres Actif 148 / 139 40% 4 10.03.2027 -
Orbelín Pineda Monterrey Actif 148 / 133 40% 4 07.03.2027 -
Ivan Toney Al-Ahli Actif 153 / 148 40% 7 03.03.2027 -
Hamza Igamane LOSC Lille Actif 132 / 135 40% 1 03.03.2027 -
Georges-Kévin Nkoudou Al-Diriyah Actif 136 / 133 40% 1 01.03.2027 -
Yoane Wissa Newcastle United Actif 132 / 138 40% 9 24.02.2027 -
Pedro Flamengo Actif 147 / 136 40% 10 24.02.2027 -
Jhon Arias Palmeiras Refusé 134 / 139 40% 3 22.02.2027 Refuser
Carlos Forbs Club Brugge Actif 140 / 138 40% 4 22.02.2027 -
Yehor Yarmoliuk Brentford Actif 145 / 145 40% 2 19.02.2027 -
João Félix Olympiacos Actif 171 / 152 40% 5 17.02.2027 -
Soufiane Rahimi Guadalajara Actif 125 / 134 40% 2 17.02.2027 -
Brian Rodríguez Club America Actif 125 / 137 40% 2 13.02.2027 -
Todd Cantwell Blackburn Rovers Actif 118 / 133 40% 3 10.02.2027 -
Rodrigo Zalazar Sporting CP Actif 139 / 140 40% 6 06.02.2027 -
José Manuel López Palmeiras Refusé 142 / 129 40% 2 04.02.2027 Plus d'infos
Diego Rossi Monterrey Actif 124 / 133 40% 2 04.02.2027 -
Tammy Abraham Aston Villa Actif 140 / 146 40% 3 03.02.2027 -
Fotis Ioannidis Rio Ave Actif 145 / 137 40% 2 03.02.2027 -
Christian Krasnodar Actif 134 / 129 40% 1 02.02.2027 -
Nuno Tavares Lazio Actif 157 / 143 40% 1 02.02.2027 -
Hany Mukhtar Spezia Actif 141 / 140 40% 1 31.01.2027 -
Adnan Courtois KV Oostende Actif 138 / 131 40% 1 31.01.2027 -
Tomás Araújo Benfica Actif 152 / 143 40% 8 29.01.2027 -
Léo Scienza Southampton Refusé 135 / 140 40% 2 29.01.2027 Plus d'infos
Jesús Orozco Chiquete Cruz Azul Actif 135 / 138 40% 2 29.01.2027 -
Ethan Galbraith Swansea City Actif 127 / 125 40% 1 29.01.2027 -
Juninho Pumas UNAM Actif 117 / 130 40% 3 28.01.2027 -
João Palhinha Benfica Actif 145 / 157 40% 5 26.01.2027 -
Fredrik Aursnes Benfica Refusé 143 / 141 40% 2 25.01.2027 -
Luciano Acosta Fluminense Actif 136 / 130 40% 1 23.01.2027 -
Julián Quiñones Lokomotiv Moscow Actif 155 / 152 40% 3 21.01.2027 -
Samuel Lino Flamengo Actif 140 / 143 40% 2 21.01.2027 -
Gérson Cruzeiro Actif 150 / 143 40% 2 21.01.2027 -
Marcelo Allende Mamelodi Sundowns Actif 132 / 132 40% 1 21.01.2027 -
Rashid Rashid Sparta Prague Actif 138 / 138 40% 1 21.01.2027 -
Alejandro Zendejas Club America Refusé 139 / 139 40% 4 18.01.2027 -
Ansu Fati Monaco Actif 128 / 144 40% 2 18.01.2027 -
Theo Bongonda Al-Faisaly Actif 131 / 125 40% 2 18.01.2027 -
Che Adams Torino Actif 133 / 135 40% 3 17.01.2027 -
Andreas Pereira Palmeiras Actif 139 / 140 40% 1 15.01.2027 -
Henry Mosquera Bragantino Actif 125 / 132 40% 1 12.01.2027 -
Nuno Moreira Vasco da Gama Actif 140 / 135 40% 3 11.01.2027 -
Taiwo Awoniyi Coventry City Actif 130 / 138 40% 2 10.01.2027 -
Nicolò Zaniolo Udinese Actif 142 / 135 40% 1 10.01.2027 -
Rémi Lemoine Chamois Niortais Actif 146 / 157 40% 5 06.01.2027 -
Nicolás de la Cruz Flamengo Actif 146 / 132 40% 2 05.01.2027 -
Andrea Pinamonti Lazio Actif 128 / 139 40% 2 04.01.2027 -
Pedro Porro Tottenham Actif 136 / 144 40% 3 02.01.2027 -
Vitinho Botafogo Actif 146 / 139 40% 2 02.01.2027 -
Juan Pablo Freytes Fluminense Actif 120 / 131 40% 1 02.01.2027 -
Victor Froholdt Porto Actif 143 / 150 40% 7 31.12.2026 -
Gianluca Scamacca Atalanta Actif 136 / 149 40% 2 31.12.2026 -
Lucas Piton Vasco da Gama Actif 132 / 135 40% 2 31.12.2026 -
Nathan Collins Brentford Actif 143 / 146 40% 1 31.12.2026 -
Joaquín Panichelli Le Havre AC Refusé 145 / 132 40% 4 28.12.2026 -
Florentino Luís Ipswich Town Actif 140 / 133 40% 1 27.12.2026 -
Gonçalo Inácio Sporting CP Actif 145 / 157 40% 6 24.12.2026 -
Tyrell Malacia Monaco Actif 148 / 126 40% 1 24.12.2026 -
Bright Arrey-Mbi Braga Actif 130 / 130 40% 2 23.12.2026 -
Luciano Juba Bahia Actif 136 / 138 40% 1 23.12.2026 -
Ilay Camara Anderlecht Actif 126 / 139 40% 1 22.12.2026 -
Mathias De Amorim Famalicao Actif 117 / 134 40% 1 19.12.2026 -
Gustaf Lagerbielke Braga Actif 131 / 129 40% 4 18.12.2026 -
Jean-Baptiste Gorby Braga Actif 140 / 127 40% 1 18.12.2026 -
Dara O'Shea Ipswich Town Actif 138 / 139 40% 2 17.12.2026 -
Matheus Bidu Corinthians Actif 125 / 123 40% 2 17.12.2026 -
Dinis Pinto Moreirense Actif 119 / 132 40% 1 16.12.2026 -
Noah Sadiki Sunderland Actif 152 / 139 40% 1 16.12.2026 -
Pablo Felipe West Ham United Actif 121 / 131 40% 1 15.12.2026 -
Lukáš Červ Viktoria Plzen Actif 126 / 124 40% 1 15.12.2026 -
Emerson Royal Flamengo Actif 131 / 139 40% 1 14.12.2026 -
Marcos Antonio Sport Recife Actif 135 / 137 40% 3 11.12.2026 -
Matheuzinho Corinthians Actif 126 / 125 40% 1 11.12.2026 -
Juanlu Bournemouth Actif 138 / 140 40% 1 07.12.2026 -
Gabriel Veron Porto Actif 119 / 128 40% 2 06.12.2026 -
Israel Reyes CSKA Moscow Négociation 137 / 137 68% 1 01.12.2026 Approuver
Gustavo Marques Bragantino Actif 131 / 126 40% 1 01.12.2026 -
Ollie Watkins Al-Hilal Actif 143 / 149 40% 5 30.11.2026 -
Ismaïla Sarr Crystal Palace Actif 151 / 149 40% 1 29.11.2026 -
Richarlison Tottenham Actif 138 / 139 40% 2 28.11.2026 -
Steven Bergwijn Al-Ittihad Actif 143 / 144 40% 1 27.11.2026 -
Nordi Mukiele Sunderland Actif 134 / 136 40% 1 27.11.2026 -
Caio Alexandre Bahia Actif 146 / 141 40% 1 27.11.2026 -
Gabriel Jesus Barcelona Actif 143 / 152 40% 8 25.11.2026 -
Petar Musa Adana Demirspor Actif 130 / 133 40% 2 23.11.2026 -
Kerem Aktürkoğlu Fenerbahce Actif 131 / 147 40% 2 20.11.2026 -
Gonzalo Fulham Actif 132 / 142 40% 7 19.11.2026 -
Pablo Rosario Porto Actif 131 / 132 40% 3 16.11.2026 -
Lee Hyun-Ju Arouca Actif 130 / 127 40% 1 15.11.2026 -
Zeno Debast Sporting CP Actif 140 / 133 40% 4 14.11.2026 -
Ángel Correa River Plate Actif 145 / 144 40% 8 14.11.2026 -
Joshua Zirkzee Manchester United Actif 152 / 149 40% 4 14.11.2026 -
Randal Kolo Muani Juventus Actif 150 / 138 40% 3 14.11.2026 -
Fabrício Bruno Cruzeiro Actif 130 / 130 40% 1 10.11.2026 -
Lorougnon Gohi Académico de Viseu Actif 124 / 119 40% 1 06.11.2026 -
Leon Goretzka Aston Villa Actif 167 / 149 40% 2 02.11.2026 -
Alexey Miranchuk St. Gallen Actif 154 / 146 40% 3 30.10.2026 -
Leandro Barreiro Benfica Actif 126 / 135 40% 3 29.10.2026 -
Leonardo Borja La Equidad Actif 147 / 139 40% 1 24.10.2026 -
Brennan Johnson Everton Actif 129 / 148 40% 1 24.10.2026 -
Samu Aghehowa AS Roma Actif 135 / 157 40% 1 23.10.2026 -
Taty Castellanos West Ham United Actif 145 / 140 40% 2 20.10.2026 -
Jean-Philippe Mateta Crystal Palace Actif 144 / 158 40% 3 17.10.2026 -
Vangelis Pavlidis Twente Actif 166 / 151 40% 1 17.10.2026 -
Alexander Bah Benfica Actif 125 / 137 40% 1 15.10.2026 -
Joaquín Piquerez Palmeiras Actif 129 / 138 40% 1 09.10.2026 -
Thorgan Witsel KV Oostende Actif 129 / 144 40% 1 09.10.2026 -
Luis Suárez Chelsea Actif 158 / 150 40% 1 09.10.2026 -
Renan Lodi Atlético Mineiro Actif 132 / 142 40% 3 08.10.2026 -
Youssef En-Nesyri Al-Ittihad Actif 130 / 147 40% 3 05.10.2026 -
Noah Okafor Leeds United Actif 127 / 138 40% 1 05.10.2026 -
Eddie Nketiah Crystal Palace Actif 147 / 132 40% 1 02.10.2026 -
Guilherme Arana Fluminense Actif 137 / 132 40% 2 28.09.2026 -
Mauro Arambarri River Plate Actif 153 / 159 40% 2 26.09.2026 -
William Cruzeiro Actif 126 / 139 40% 1 26.09.2026 -
Léo Ortiz Flamengo Actif 143 / 134 40% 1 24.09.2026 -
Sergi Altimira Sporting CP Actif 124 / 133 40% 1 20.09.2026 -
Facundo Colidio Vasco da Gama Actif 133 / 124 40% 1 19.09.2026 -
Tamble Monteiro Rio Ave Actif 120 / 110 40% 1 19.09.2026 -
Thiago Brentford Actif 147 / 148 40% 2 16.09.2026 -
Yankuba Minteh Brighton Actif 145 / 154 40% 1 03.09.2026 -
Martinelli Fluminense Actif 147 / 134 40% 1 03.09.2026 -
Guus Til PSV Actif 136 / 145 40% 1 31.08.2026 -
Márcio Mendes Pandurii Actif 132 / 126 40% 1 31.08.2026 -
Vinicinho Bragantino Actif 131 / 128 40% 1 31.08.2026 -
Luke Shaw Manchester United Actif 151 / 159 40% 1 25.08.2026 -
Brais Méndez Columbus Crew Actif 151 / 155 40% 1 19.08.2026 -
João Simões Sporting CP Actif 136 / 132 40% 1 19.08.2026 -
Breel Embolo Atlanta United FC Actif 125 / 137 40% 1 15.08.2026 -
Lucas Veríssimo Santos Actif 131 / 130 40% 1 15.08.2026 -
Marcos Llorente Atlético Madrid Actif 170 / 158 40% 1 07.08.2026 -
Antony Betis Actif 145 / 158 40% 1 06.08.2026 -
Endrick Real Madrid Actif 156 / 154 40% 1 05.08.2026 -
Gonçalo Guedes Real Sociedad Actif 147 / 156 40% 1 05.08.2026 -
Andreas Christensen Barcelona Actif 139 / 146 40% 1 04.08.2026 -
Karim Adeyemi Barcelona Actif 161 / 159 40% 1 04.08.2026 -